Time;durP1;ratioP1;P1;durP2;ratioP2;P2;SDS_P1;SDS_P2;PMS_P1;PMS_P2;Temp;Humidity;BMP_temperature;BMP_pressure;BME280_temperature;BME280_humidity;BME280_pressure;Samples;Min_cycle;Max_cycle;Signal;HPM_P1;HPM_P2
2021/12/25 00:00:41;;;;;;;1.70;0.75;;;21.80;49.60;;;;;;6334305;27;20510;-41
2021/12/25 00:03:43;;;;;;;1.20;0.77;;;21.50;49.30;;;;;;6317302;27;20074;-41
2021/12/25 00:06:45;;;;;;;;;;;21.50;49.40;;;;;;6332891;27;20654;-42
2021/12/25 00:09:46;;;;;;;1.05;0.55;;;21.40;49.30;;;;;;6326376;27;20013;-41
2021/12/25 00:12:49;;;;;;;0.95;0.50;;;21.30;49.20;;;;;;6343494;27;20098;-46
2021/12/25 00:15:52;;;;;;;0.60;0.50;;;21.60;49.50;;;;;;6323340;27;20581;-41
2021/12/25 00:18:54;;;;;;;0.80;0.70;;;21.60;49.50;;;;;;6318365;28;20071;-41
2021/12/25 00:21:59;;;;;;;0.70;0.60;;;21.60;49.50;;;;;;6323528;28;20043;-41
2021/12/25 00:25:01;;;;;;;1.00;0.70;;;21.40;49.40;;;;;;6322786;28;20051;-42
2021/12/25 00:28:18;;;;;;;0.93;0.70;;;21.60;49.60;;;;;;6321917;28;20039;-41
2021/12/25 00:31:44;;;;;;;0.52;0.50;;;22.90;50.20;;;;;;6330172;27;20094;-41
2021/12/25 00:34:45;;;;;;;0.73;0.50;;;21.70;49.60;;;;;;6336609;27;20078;-41
2021/12/25 00:37:47;;;;;;;0.80;0.50;;;21.50;49.50;;;;;;6315971;28;20129;-41
2021/12/25 00:40:49;;;;;;;1.50;0.95;;;21.60;49.50;;;;;;6320510;28;20055;-41
2021/12/25 00:43:52;;;;;;;0.95;0.70;;;21.50;49.50;;;;;;6322818;28;20051;-41
2021/12/25 00:46:57;;;;;;;0.90;0.65;;;21.70;49.60;;;;;;6335105;27;20511;-41
2021/12/25 00:49:59;;;;;;;1.13;0.70;;;21.30;49.40;;;;;;6302741;27;20481;-41
2021/12/25 00:53:00;;;;;;;0.70;0.60;;;21.40;49.50;;;;;;6307864;28;20659;-42
2021/12/25 00:56:02;;;;;;;;;;;21.50;49.50;;;;;;6319680;27;20066;-43
2021/12/25 00:59:04;;;;;;;;;;;21.70;50.00;;;;;;6325173;27;19979;-42
2021/12/25 01:02:06;;;;;;;;;;;21.40;49.80;;;;;;6338904;27;20141;-42
2021/12/25 01:05:08;;;;;;;;;;;21.50;49.80;;;;;;6342734;27;19934;-41
2021/12/25 01:08:10;;;;;;;;;;;21.20;49.60;;;;;;6342680;27;19934;-41
2021/12/25 01:11:14;;;;;;;;;;;21.40;49.80;;;;;;6339520;27;19927;-41
2021/12/25 01:14:25;;;;;;;;;;;21.90;50.00;;;;;;6330607;28;19924;-40
2021/12/25 01:18:04;;;;;;;;;;;21.60;49.90;;;;;;6314080;28;20255;-42
2021/12/25 01:21:34;;;;;;;;;;;21.70;49.90;;;;;;6328059;28;19935;-41
2021/12/25 01:24:58;;;;;;;;;;;21.50;49.70;;;;;;6317888;27;19934;-41
2021/12/25 01:28:38;;;;;;;;;;;21.30;49.60;;;;;;6348077;27;20013;-41
2021/12/25 01:31:42;;;;;;;;;;;21.40;49.60;;;;;;6313661;28;19934;-43
2021/12/25 01:35:06;;;;;;;;;;;21.30;49.60;;;;;;6329295;28;19923;-41
2021/12/25 01:38:50;;;;;;;;;;;21.60;49.80;;;;;;6322491;28;19978;-41
2021/12/25 01:47:43;;;;;;;;;;;21.40;49.70;;;;;;6331473;27;19923;-42
2021/12/25 01:49:09;;;;;;;;;;;21.70;49.70;;;;;;6328819;28;19962;-41
2021/12/25 01:52:11;;;;;;;;;;;21.50;49.60;;;;;;6314394;28;20058;-41
2021/12/25 01:55:15;;;;;;;;;;;21.60;49.70;;;;;;6327684;27;19924;-41
2021/12/25 01:58:17;;;;;;;;;;;21.30;49.50;;;;;;6324550;27;20059;-41
2021/12/25 02:01:19;;;;;;;;;;;21.60;49.70;;;;;;6318655;27;20016;-41
2021/12/25 02:04:21;;;;;;;;;;;21.40;49.50;;;;;;6343006;27;20031;-43
2021/12/25 02:07:23;;;;;;;;;;;21.60;49.70;;;;;;6338639;27;20248;-42
2021/12/25 02:10:24;;;;;;;;;;;21.40;49.50;;;;;;6319499;27;20218;-41
2021/12/25 02:13:26;;;;;;;;;;;21.60;49.60;;;;;;6330533;27;19923;-41
2021/12/25 02:16:31;;;;;;;;;;;21.50;49.60;;;;;;6324685;28;19948;-41
2021/12/25 02:19:41;;;;;;;;;;;21.30;49.40;;;;;;6319508;27;19927;-41
2021/12/25 02:22:45;;;;;;;;;;;21.70;49.60;;;;;;6314323;28;20535;-41
2021/12/25 02:25:47;;;;;;;;;;;22.10;49.90;;;;;;6326541;28;20111;-41
2021/12/25 02:28:48;;;;;;;;;;;21.30;49.40;;;;;;6305717;28;20380;-41
2021/12/25 02:31:50;;;;;;;;;;;21.70;49.80;;;;;;6322481;27;19931;-42
2021/12/25 02:34:51;;;;;;;;;;;21.80;49.70;;;;;;6337726;27;20298;-41
2021/12/25 02:37:53;;;;;;;;;;;21.30;49.40;;;;;;6341875;27;19934;-41
2021/12/25 02:40:55;;;;;;;;;;;21.50;49.50;;;;;;6323042;27;20438;-41
2021/12/25 02:43:57;;;;;;;;;;;21.20;49.30;;;;;;6323870;28;19928;-43
2021/12/25 02:47:16;;;;;;;;;;;21.20;49.30;;;;;;6326793;28;19928;-41
2021/12/25 02:50:22;;;;;;;;;;;21.30;50.00;;;;;;6324885;28;19927;-41
2021/12/25 02:53:23;;;;;;;;;;;21.80;49.60;;;;;;6313628;27;20031;-42
2021/12/25 02:56:25;;;;;;;;;;;21.80;49.60;;;;;;6330896;27;20073;-41
2021/12/25 02:59:26;;;;;;;;;;;21.60;49.50;;;;;;6339458;27;19938;-41
2021/12/25 03:02:37;;;;;;;;;;;21.20;49.30;;;;;;6326657;27;19935;-41
2021/12/25 03:05:40;;;;;;;;;;;21.30;49.40;;;;;;6332478;27;20659;-42
2021/12/25 03:08:42;;;;;;;;;;;21.20;49.30;;;;;;6334962;27;20009;-41
2021/12/25 03:11:43;;;;;;;;;;;21.50;49.40;;;;;;6321750;27;20566;-41
2021/12/25 03:18:01;;;;;;;;;;;21.20;49.20;;;;;;6294852;28;19967;-40
2021/12/25 03:21:05;;;;;;;;;;;21.20;49.30;;;;;;6326601;28;20166;-41
2021/12/25 03:24:07;;;;;;;;;;;21.30;49.30;;;;;;6307160;28;19923;-42
2021/12/25 03:27:08;;;;;;;;;;;21.80;49.50;;;;;;6327081;27;20012;-41
2021/12/25 03:30:14;;;;;;;;;;;21.50;49.50;;;;;;6329677;27;19962;-41
2021/12/25 03:33:17;;;;;;;;;;;21.30;49.20;;;;;;6327129;27;19926;-41
2021/12/25 03:36:19;;;;;;;;;;;21.30;49.20;;;;;;6327100;27;20795;-41
2021/12/25 03:39:20;;;;;;;;;;;21.20;49.20;;;;;;6322429;28;20366;-40
2021/12/25 03:42:22;;;;;;;;;;;21.20;49.30;;;;;;6306416;28;20723;-41
2021/12/25 03:45:24;;;;;;;;;;;21.30;49.30;;;;;;6321361;28;19978;-41
2021/12/25 03:48:44;;;;;;;;;;;21.30;49.20;;;;;;6328520;28;20469;-42
2021/12/25 03:58:27;;;;;;;;;;;21.60;49.20;;;;;;6327870;27;19927;-41
2021/12/25 04:01:40;;;;;;;;;;;21.30;49.20;;;;;;6326400;27;20210;-41
2021/12/25 04:04:46;;;;;;;;;;;21.60;49.30;;;;;;6338813;27;19940;-41
2021/12/25 04:11:11;;;;;;;;;;;21.20;49.10;;;;;;6315942;28;19936;-41
2021/12/25 04:14:13;;;;;;;;;;;21.40;49.30;;;;;;6322987;28;19998;-42
2021/12/25 04:17:15;;;;;;;;;;;21.50;49.30;;;;;;6323882;28;19924;-40
2021/12/25 04:20:17;;;;;;;;;;;21.60;49.30;;;;;;6285998;28;19930;-41
2021/12/25 04:23:24;;;;;;;;;;;21.20;49.10;;;;;;6302681;27;19927;-41
2021/12/25 04:26:26;;;;;;;;;;;21.20;49.10;;;;;;6335366;27;20378;-41
2021/12/25 04:29:38;;;;;;;;;;;21.60;49.20;;;;;;6304453;28;19923;-42
2021/12/25 04:33:17;;;;;;;;;;;21.70;49.30;;;;;;6322411;27;20249;-41
2021/12/25 04:42:51;;;;;;;;;;;21.20;49.00;;;;;;6334853;27;20056;-41
2021/12/25 05:02:19;;;;;;;;;;;21.50;49.00;;;;;;6325457;27;19930;-41
2021/12/25 05:05:35;;;;;;;;;;;21.40;49.10;;;;;;6346595;27;20433;-41
2021/12/25 05:08:50;;;;;;;;;;;21.30;49.00;;;;;;6336058;27;19935;-40
2021/12/25 05:11:51;;;;;;;;;;;21.60;49.20;;;;;;6325596;28;19928;-43
2021/12/25 05:14:53;;;;;;;;;;;21.40;49.00;;;;;;6329366;28;20440;-41
2021/12/25 05:17:54;;;;;;;;;;;21.20;49.00;;;;;;6328419;27;20305;-40
2021/12/25 05:20:56;;;;;;;;;;;21.20;49.00;;;;;;6335667;27;19923;-41
2021/12/25 05:23:58;;;;;;;;;;;21.60;49.20;;;;;;6320947;27;20290;-43
2021/12/25 05:27:05;;;;;;;;;;;21.30;48.90;;;;;;6320724;27;20014;-41
2021/12/25 05:30:07;;;;;;;;;;;21.20;48.90;;;;;;6320163;28;19928;-41
2021/12/25 05:33:19;;;;;;;;;;;21.60;49.10;;;;;;6317376;28;19935;-40
2021/12/25 05:36:40;;;;;;;;;;;21.40;49.00;;;;;;6334407;27;20480;-40
2021/12/25 05:39:54;;;;;;;;;;;21.20;48.90;;;;;;6329113;27;19924;-41
2021/12/25 05:43:01;;;;;;;;;;;21.30;49.00;;;;;;6302175;28;20199;-41
2021/12/25 05:46:03;;;;;;;;;;;21.20;48.90;;;;;;6318469;28;20401;-43
2021/12/25 05:49:07;;;;;;;;;;;21.50;49.10;;;;;;6318329;27;19931;-41
2021/12/25 05:52:27;;;;;;;;;;;21.10;48.90;;;;;;6319147;28;19979;-41
2021/12/25 05:55:46;;;;;;;;;;;21.30;49.00;;;;;;6331434;27;20299;-41
2021/12/25 05:59:07;;;;;;;;;;;21.30;49.00;;;;;;6331891;27;20046;-40
2021/12/25 06:02:24;;;;;;;;;;;21.40;49.00;;;;;;6338819;27;20341;-40
2021/12/25 06:05:27;;;;;;;;;;;21.60;49.20;;;;;;6329456;27;19923;-40
2021/12/25 06:08:28;;;;;;;;;;;21.10;48.80;;;;;;6320609;27;20746;-41
2021/12/25 06:11:31;;;;;;;;;;;21.30;49.00;;;;;;6342356;27;20417;-41
2021/12/25 06:14:33;;;;;;;;;;;21.10;48.80;;;;;;6333743;27;20521;-42
2021/12/25 06:17:46;;;;;;;;;;;21.50;49.00;;;;;;6321316;28;19923;-41
2021/12/25 06:20:56;;;;;;;;;;;21.30;48.90;;;;;;6320915;28;19923;-40
2021/12/25 06:24:10;;;;;;;;;;;21.20;48.90;;;;;;6318270;28;20022;-41
2021/12/25 06:27:21;;;;;;;;;;;21.40;49.00;;;;;;6303911;28;19924;-41
2021/12/25 06:30:43;;;;;;;;;;;21.50;48.90;;;;;;6326540;27;20488;-40
2021/12/25 06:33:58;;;;;;;;;;;21.20;48.80;;;;;;6343578;27;20326;-41
2021/12/25 06:37:11;;;;;;;;;;;21.50;49.00;;;;;;6315191;28;20413;-41
2021/12/25 06:40:29;;;;;;;;;;;21.50;48.90;;;;;;6321733;27;19989;-40
2021/12/25 06:43:32;;;;;;;;;;;21.50;49.00;;;;;;6323119;28;19923;-41
2021/12/25 06:46:34;;;;;;;;;;;21.30;48.90;;;;;;6321998;28;20292;-40
2021/12/25 06:49:36;;;;;;;;;;;21.20;48.80;;;;;;6325316;28;20458;-41
2021/12/25 06:52:55;;;;;;;;;;;21.20;48.90;;;;;;6335925;27;20339;-41
2021/12/25 06:56:14;;;;;;;;;;;21.10;48.90;;;;;;6335446;27;20093;-41
2021/12/25 06:59:30;;;;;;;;;;;21.10;48.80;;;;;;6341175;27;20822;-40
2021/12/25 07:02:32;;;;;;;;;;;21.10;48.80;;;;;;6279170;28;20350;-40
2021/12/25 07:05:44;;;;;;;;;;;21.20;48.90;;;;;;6311742;27;20472;-40
2021/12/25 07:09:08;;;;;;;;;;;21.60;49.10;;;;;;6321070;27;20189;-41
2021/12/25 07:12:31;;;;;;;;;;;21.40;49.50;;;;;;6296858;28;20050;-41
2021/12/25 07:15:44;;;;;;;;;;;21.50;49.00;;;;;;6297178;28;19923;-40
2021/12/25 07:19:05;;;;;;;;;;;21.50;48.90;;;;;;6286515;28;20233;-40
2021/12/25 07:22:18;;;;;;;;;;;21.30;48.90;;;;;;6296590;28;20191;-43
2021/12/25 07:25:34;;;;;;;;;;;21.60;49.00;;;;;;6315367;27;20094;-40
2021/12/25 07:28:51;;;;;;;;;;;21.30;48.90;;;;;;6306294;27;19945;-40
2021/12/25 07:31:53;;;;;;;;;;;21.50;49.00;;;;;;6298363;28;19927;-41
2021/12/25 07:34:56;;;;;;;;;;;21.20;48.80;;;;;;6301628;28;19987;-41
2021/12/25 07:37:58;;;;;;;;;;;21.10;48.80;;;;;;6298814;28;20489;-41
2021/12/25 07:40:59;;;;;;;;;;;21.70;49.00;;;;;;6302649;27;21376;-40
2021/12/25 07:44:01;;;;;;;;;;;21.10;48.70;;;;;;6320541;27;19927;-40
2021/12/25 07:47:14;;;;;;;;;;;21.80;49.20;;;;;;6302092;27;20672;-40
2021/12/25 07:50:16;;;;;;;;;;;21.10;48.80;;;;;;6296139;28;20522;-40
2021/12/25 07:53:18;;;;;;;;;;;21.10;48.80;;;;;;6295604;28;20026;-41
2021/12/25 07:56:19;;;;;;;;;;;21.30;48.90;;;;;;6282525;27;20472;-41
2021/12/25 07:59:20;;;;;;;;;;;21.00;48.70;;;;;;6299845;27;20050;-41
2021/12/25 08:02:22;;;;;;;;;;;21.10;48.70;;;;;;6314825;27;19934;-41
2021/12/25 08:05:24;;;;;;;;;;;21.20;48.80;;;;;;6311699;27;19923;-40
2021/12/25 08:08:25;;;;;;;;;;;21.50;49.00;;;;;;6294816;27;19927;-40
2021/12/25 08:11:27;;;;;;;;;;;21.40;49.50;;;;;;6314885;27;20203;-40
2021/12/25 08:14:29;;;;;;;;;;;21.20;48.80;;;;;;6276351;28;20353;-40
2021/12/25 08:17:30;;;;;;;;;;;21.10;48.80;;;;;;6311473;27;20523;-41
2021/12/25 08:20:45;;;;;;;;;;;21.00;48.70;;;;;;6306059;27;20462;-40
2021/12/25 08:24:04;;;;;;;;;;;21.00;48.70;;;;;;6295113;28;19923;-40
2021/12/25 08:27:24;;;;;;;;;;;21.40;48.90;;;;;;6298503;28;19929;-40
2021/12/25 08:30:44;;;;;;;;;;;21.30;48.80;;;;;;6282718;28;20501;-40
2021/12/25 08:34:05;;;;;;;;;;;21.00;48.80;;;;;;6300318;28;20373;-41
2021/12/25 08:37:27;;;;;;;;;;;21.50;49.00;;;;;;6310989;27;20777;-41
2021/12/25 08:40:28;;;;;;;;;;;20.90;48.70;;;;;;6309911;27;20216;-41
2021/12/25 08:43:34;;;;;;;;;;;21.80;49.20;;;;;;6302930;28;20325;-40
2021/12/25 08:46:45;;;;;;;;;;;21.50;49.00;;;;;;6303336;28;19974;-40
2021/12/25 08:49:46;;;;;;;;;;;21.40;48.80;;;;;;6304337;28;19985;-40
2021/12/25 08:52:49;;;;;;;;;;;21.10;48.70;;;;;;6311827;27;20367;-40
2021/12/25 08:55:51;;;;;;;;;;;21.80;49.10;;;;;;6321363;27;20046;-40
2021/12/25 08:58:52;;;;;;;;;;;21.00;48.70;;;;;;6323079;27;20014;-41
2021/12/25 09:01:54;;;;;;;;;;;21.00;48.70;;;;;;6315794;27;19923;-40
2021/12/25 09:04:55;;;;;;;;;;;21.40;48.90;;;;;;6301712;27;19924;-40
2021/12/25 09:07:57;;;;;;;;;;;21.50;49.00;;;;;;6311212;27;20235;-41
2021/12/25 09:11:00;;;;;;;;;;;21.40;48.90;;;;;;6302874;27;20018;-40
2021/12/25 09:14:02;;;;;;;;;;;21.20;48.60;;;;;;6325993;27;20170;-41
2021/12/25 09:17:04;;;;;;;;;;;21.30;48.60;;;;;;6310926;27;20437;-40
2021/12/25 09:20:06;;;;;;;;;;;21.30;48.60;;;;;;6281644;28;20070;-40
2021/12/25 09:23:08;;;;;;;;;;;21.50;48.60;;;;;;6279692;28;20652;-41
2021/12/25 09:26:09;;;;;;;;;;;21.30;48.50;;;;;;6302988;28;20781;-41
2021/12/25 09:29:10;;;;;;;;;;;21.40;48.60;;;;;;6306121;27;20530;-41
2021/12/25 09:32:12;;;;;;;;;;;21.20;48.40;;;;;;6321327;27;20267;-40
2021/12/25 09:35:13;;;;;;;;;;;21.30;48.40;;;;;;6308726;27;20392;-40
2021/12/25 09:38:15;;;;;;;;;;;21.40;48.30;;;;;;6299961;28;19983;-41
2021/12/25 09:41:18;;;;;;;;;;;21.80;48.50;;;;;;6298895;28;20047;-41
2021/12/25 09:44:19;;;;;;;;;;;21.90;48.50;;;;;;6286208;28;20045;-40
2021/12/25 09:47:21;;;;;;;;;;;21.60;48.30;;;;;;6300596;28;20005;-41
2021/12/25 09:50:23;;;;;;;;;;;21.80;48.30;;;;;;6312022;27;20263;-40
2021/12/25 09:53:26;;;;;;;;;;;21.40;48.20;;;;;;6318316;27;20412;-41
2021/12/25 09:56:27;;;;;;;;;;;21.50;48.10;;;;;;6309038;27;20066;-40
2021/12/25 09:59:29;;;;;;;;;;;21.80;48.30;;;;;;6321377;27;19927;-40
2021/12/25 10:02:40;;;;;;;;;;;21.90;48.30;;;;;;6304142;27;19970;-40
2021/12/25 10:05:44;;;;;;;;;;;21.70;48.00;;;;;;6305128;27;19927;-40
2021/12/25 10:08:46;;;;;;;;;;;21.50;47.90;;;;;;6323520;27;20413;-41
2021/12/25 10:12:03;;;;;;;;;;;21.60;48.00;;;;;;6309279;27;20046;-41
2021/12/25 10:15:13;;;;;;;;;;;22.00;47.90;;;;;;6288718;28;19974;-41
2021/12/25 10:18:14;;;;;;;;;;;21.90;48.00;;;;;;6285588;28;20055;-41
2021/12/25 10:21:17;;;;;;;;;;;21.60;47.90;;;;;;6299875;27;20190;-40
2021/12/25 10:24:26;;;;;;;;;;;22.00;48.00;;;;;;6321029;27;19932;-43
2021/12/25 10:27:27;;;;;;;;;;;21.60;47.80;;;;;;6302064;27;20034;-41
2021/12/25 10:30:30;;;;;;;;;;;21.80;47.90;;;;;;6299011;28;20088;-41
2021/12/25 10:33:35;;;;;;;;;;;22.00;47.90;;;;;;6298256;28;20492;-41
2021/12/25 10:36:36;;;;;;;;;;;22.00;47.80;;;;;;6283358;28;20122;-41
2021/12/25 10:39:39;;;;;;;;;;;21.60;47.70;;;;;;6297388;28;20321;-44
2021/12/25 10:42:43;;;;;;;;;;;22.00;47.80;;;;;;6310021;27;19927;-41
2021/12/25 10:45:58;;;;;;;;;;;22.10;47.90;;;;;;6318466;27;20161;-41
2021/12/25 10:49:10;;;;;;;;;;;21.80;47.60;;;;;;6283372;28;20822;-40
2021/12/25 10:52:14;;;;;;;;;;;21.60;47.50;;;;;;6300102;27;19931;-41
2021/12/25 10:55:17;;;;;;;;;;;22.20;47.80;;;;;;6282024;28;19923;-40
2021/12/25 10:58:20;;;;;;;;;;;21.90;47.60;;;;;;6296623;27;19965;-41
2021/12/25 11:01:21;;;;;;;;;;;21.80;47.50;;;;;;6311905;27;20140;-43
2021/12/25 11:04:25;;;;;;;;;;;22.10;47.70;;;;;;6314222;27;20515;-40
2021/12/25 11:07:26;;;;;;;;;;;22.40;47.70;;;;;;6314440;27;20080;-41
2021/12/25 11:10:29;;;;;;;;;;;22.30;47.70;;;;;;6301043;27;19973;-40
2021/12/25 11:13:33;;;;;;;;;;;22.30;47.60;;;;;;6295947;28;19996;-41
2021/12/25 11:16:38;;;;;;;;;;;22.50;47.70;;;;;;6282312;28;20471;-41
2021/12/25 11:19:46;;;;;;;;;;;22.10;47.50;;;;;;6297909;28;19940;-41
2021/12/25 11:22:48;;;;;;;;;;;22.30;47.50;;;;;;6314906;27;20149;-40
2021/12/25 11:25:50;;;;;;;;;;;22.20;47.50;;;;;;6303660;27;20567;-41
2021/12/25 11:28:52;;;;;;;;;;;22.00;47.40;;;;;;6300024;27;20293;-41
2021/12/25 11:31:54;;;;;;;;;;;22.20;47.50;;;;;;6297268;28;20214;-41
2021/12/25 11:34:58;;;;;;;;;;;22.50;47.50;;;;;;6283113;27;20119;-40
2021/12/25 11:37:59;;;;;;;;;;;22.20;47.40;;;;;;6315663;27;20740;-40
2021/12/25 11:41:06;;;;;;;;;;;22.30;47.40;;;;;;6284709;28;20875;-41
2021/12/25 11:44:23;;;;;;;;;;;22.40;47.50;;;;;;6299199;28;20408;-42
2021/12/25 11:47:33;;;;;;;;;;;22.30;47.40;;;;;;6287540;28;20459;-40
2021/12/25 11:50:40;;;;;;;;;;;22.10;47.20;;;;;;6302188;28;19993;-41
2021/12/25 11:53:46;;;;;;;;;;;22.10;47.20;;;;;;6296561;28;20137;-41
2021/12/25 11:57:03;;;;;;;;;;;22.30;47.40;;;;;;6300529;27;20214;-41
2021/12/25 12:00:05;;;;;;;;;;;22.20;47.30;;;;;;6297702;27;20287;-42
2021/12/25 12:03:28;;;;;;;;;;;22.20;47.20;;;;;;6309383;27;20722;-42
2021/12/25 12:06:43;;;;;;;;;;;22.20;47.30;;;;;;6299823;27;20326;-41
2021/12/25 12:09:54;;;;;;;;;;;22.50;47.40;;;;;;6298656;27;20326;-40
2021/12/25 12:13:17;;;;;;;;;;;22.30;47.30;;;;;;6310794;27;20037;-40
2021/12/25 12:16:36;;;;;;;;;;;22.30;47.20;;;;;;6288622;28;19923;-41
2021/12/25 12:19:46;;;;;;;;;;;22.50;47.30;;;;;;6285154;28;20357;-41
2021/12/25 12:22:55;;;;;;;;;;;22.70;47.40;;;;;;6300015;28;20199;-41
2021/12/25 12:26:05;;;;;;;;;;;22.30;47.20;;;;;;6302694;28;20254;-41
2021/12/25 12:29:07;;;;;;;;;;;22.50;47.30;;;;;;6316078;27;20824;-41
2021/12/25 12:32:31;;;;;;;;;;;22.30;47.20;;;;;;6309747;27;19982;-42
2021/12/25 12:35:33;;;;;;;;;;;22.40;47.20;;;;;;6285897;28;19923;-41
2021/12/25 12:38:38;;;;;;;;;;;22.30;47.20;;;;;;6300039;28;19934;-41
2021/12/25 12:41:49;;;;;;;;;;;22.80;47.40;;;;;;6301039;28;19931;-41
2021/12/25 12:45:06;;;;;;;;;;;22.30;47.10;;;;;;6302134;28;20059;-42
2021/12/25 12:48:11;;;;;;;;;;;22.80;47.40;;;;;;6301707;28;20071;-42
2021/12/25 12:51:18;;;;;;;;;;;22.60;47.30;;;;;;6312271;27;20117;-41
2021/12/25 12:54:34;;;;;;;;;;;22.70;47.30;;;;;;6313263;27;19931;-41
2021/12/25 12:57:36;;;;;;;;;;;22.40;47.10;;;;;;6292717;27;20343;-41
2021/12/25 13:00:38;;;;;;;;;;;22.70;47.30;;;;;;6308601;27;20340;-41
2021/12/25 13:03:40;;;;;;;;;;;22.60;47.20;;;;;;6299942;27;19954;-41
2021/12/25 13:06:42;;;;;;;;;;;22.70;47.20;;;;;;6307147;27;20246;-42
2021/12/25 13:09:49;;;;;;;;;;;22.60;47.20;;;;;;6314229;27;20819;-41
2021/12/25 13:12:56;;;;;;;;;;;22.60;47.20;;;;;;6275013;28;20371;-41
2021/12/25 13:15:59;;;;;;;;;;;22.40;47.10;;;;;;6282000;28;19928;-40
2021/12/25 13:19:03;;;;;;;;;;;22.50;47.10;;;;;;6293273;28;19956;-41
2021/12/25 13:22:12;;;;;;;;;;;22.70;47.20;;;;;;6286808;27;20959;-41
2021/12/25 13:25:19;;;;;;;;;;;22.80;47.20;;;;;;6317233;27;20112;-41
2021/12/25 13:28:21;;;;;;;;;;;22.80;47.20;;;;;;6300881;27;20038;-41
2021/12/25 13:31:24;;;;;;;;;;;22.40;47.00;;;;;;6299143;28;20055;-41
2021/12/25 13:34:30;;;;;;;;;;;22.80;47.20;;;;;;6296653;28;20080;-41
2021/12/25 13:37:31;;;;;;;;;;;22.80;47.20;;;;;;6297464;28;20712;-41
2021/12/25 13:40:33;;;;;;;;;;;22.50;47.00;;;;;;6301084;28;20366;-41
2021/12/25 13:43:34;;;;;;;;;;;22.60;47.10;;;;;;6291182;27;20144;-41
2021/12/25 13:46:41;;;;;;;;;;;23.10;47.40;;;;;;6312590;27;19923;-41
2021/12/25 13:49:45;;;;;;;;;;;22.60;47.10;;;;;;6298728;28;19927;-40
2021/12/25 13:52:53;;;;;;;;;;;22.80;47.20;;;;;;6283104;28;20604;-41
2021/12/25 13:55:55;;;;;;;;;;;22.60;47.10;;;;;;6299680;27;19928;-41
2021/12/25 13:59:07;;;;;;;;;;;22.50;47.00;;;;;;6310905;27;20442;-40
2021/12/25 14:02:11;;;;;;;;;;;23.00;47.30;;;;;;6320912;27;20655;-40
2021/12/25 14:05:19;;;;;;;;;;;22.50;47.00;;;;;;6286806;28;20456;-41
2021/12/25 14:08:23;;;;;;;;;;;22.80;47.10;;;;;;6311378;27;20034;-41
2021/12/25 14:11:28;;;;;;;;;;;22.90;47.10;;;;;;6307261;27;20045;-41
2021/12/25 14:14:30;;;;;;;;;;;22.70;47.00;;;;;;6299460;28;19949;-41
2021/12/25 14:17:33;;;;;;;;;;;22.60;47.00;;;;;;6279457;28;20034;-40
2021/12/25 14:20:35;;;;;;;;;;;22.90;47.80;;;;;;6284648;27;20468;-42
2021/12/25 14:23:37;;;;;;;;;;;22.80;47.10;;;;;;6302839;27;19990;-41
2021/12/25 14:26:38;;;;;;;;;;;22.80;47.10;;;;;;6306971;27;19924;-41
2021/12/25 14:29:40;;;;;;;;;;;22.70;47.00;;;;;;6301148;28;19924;-41
2021/12/25 14:32:47;;;;;;;;;;;22.80;47.00;;;;;;6300153;28;20065;-41
2021/12/25 14:35:49;;;;;;;;;;;22.80;47.00;;;;;;6309938;27;19978;-40
2021/12/25 14:38:50;;;;;;;;;;;22.90;47.10;;;;;;6321870;27;20169;-41
2021/12/25 14:41:52;;;;;;;;;;;22.60;46.90;;;;;;6285752;28;19993;-41
2021/12/25 14:44:57;;;;;;;;;;;23.00;47.20;;;;;;6302677;28;20243;-41
2021/12/25 14:48:00;;;;;;;;;;;22.90;47.00;;;;;;6303152;28;19923;-41
2021/12/25 14:51:03;;;;;;;;;;;22.60;46.90;;;;;;6300132;27;20675;-41
2021/12/25 14:54:06;;;;;;;;;;;22.90;47.10;;;;;;6310264;27;20614;-40
2021/12/25 14:57:07;;;;;;;;;;;22.60;46.90;;;;;;6309968;27;20853;-40
2021/12/25 15:00:09;;;;;;;;;;;22.70;47.00;;;;;;6316070;27;19969;-41
2021/12/25 15:03:13;;;;;;;;;;;22.80;47.00;;;;;;6298722;27;20397;-40
2021/12/25 15:06:18;;;;;;;;;;;22.60;46.90;;;;;;6305157;27;20368;-41
2021/12/25 15:09:20;;;;;;;;;;;22.90;47.00;;;;;;6309066;27;20054;-41
2021/12/25 15:12:23;;;;;;;;;;;22.70;46.90;;;;;;6279113;27;20090;-41
2021/12/25 15:15:24;;;;;;;;;;;22.60;46.80;;;;;;6319030;27;20594;-41
2021/12/25 15:18:27;;;;;;;;;;;22.70;47.00;;;;;;6301820;27;20518;-40
2021/12/25 15:21:29;;;;;;;;;;;22.80;46.90;;;;;;6298042;28;19923;-41
2021/12/25 15:24:30;;;;;;;;;;;23.20;47.20;;;;;;6292391;27;20376;-40
2021/12/25 15:27:33;;;;;;;;;;;22.70;46.90;;;;;;6298230;27;20406;-41
2021/12/25 15:30:35;;;;;;;;;;;22.60;46.80;;;;;;6300624;27;20153;-41
2021/12/25 15:33:43;;;;;;;;;;;22.50;46.70;;;;;;6300429;27;19929;-41
2021/12/25 15:36:47;;;;;;;;;;;22.80;46.90;;;;;;6281512;28;20050;-41
2021/12/25 15:39:48;;;;;;;;;;;23.00;47.00;;;;;;6279242;28;20258;-42
2021/12/25 15:42:50;;;;;;;;;;;22.90;47.00;;;;;;6279810;28;20054;-41
2021/12/25 15:45:51;;;;;;;;;;;23.10;47.10;;;;;;6294496;28;20339;-42
2021/12/25 15:48:53;;;;;;;;;;;22.60;46.90;;;;;;6298431;27;20622;-41
2021/12/25 15:51:56;;;;;;;;;;;22.90;47.00;;;;;;6308995;27;20157;-41
2021/12/25 15:54:57;;;;;;;;;;;23.00;47.00;;;;;;6279725;28;20441;-41
2021/12/25 15:58:05;;;;;;;;;;;23.00;47.00;;;;;;6294842;27;20568;-42
2021/12/25 16:01:06;;;;;;;;;;;22.60;46.80;;;;;;6297827;27;20463;-41
2021/12/25 16:04:08;;;;;;;;;;;23.10;47.10;;;;;;6308012;27;20477;-40
2021/12/25 16:07:10;;;;;;;;;;;22.70;46.90;;;;;;6313473;27;19978;-44
2021/12/25 16:10:12;;;;;;;;;;;22.80;46.90;;;;;;6310639;27;20467;-42
2021/12/25 16:13:19;;;;;;;;;;;22.60;46.80;;;;;;6311688;27;20222;-40
2021/12/25 16:16:20;;;;;;;;;;;22.60;46.80;;;;;;6305118;27;20045;-40
2021/12/25 16:19:22;;;;;;;;;;;22.80;46.90;;;;;;6297876;27;20202;-41
2021/12/25 16:22:23;;;;;;;;;;;22.90;47.00;;;;;;6308083;27;20115;-43
2021/12/25 16:25:25;;;;;;;;;;;22.60;46.80;;;;;;6315431;27;19966;-41
2021/12/25 16:28:26;;;;;;;;;;;22.90;47.00;;;;;;6298013;28;20138;-41
2021/12/25 16:31:28;;;;;;;;;;;22.70;46.80;;;;;;6296315;28;20262;-41
2021/12/25 16:34:30;;;;;;;;;;;22.90;46.90;;;;;;6294045;28;20472;-41
2021/12/25 16:37:31;;;;;;;;;;;22.60;46.80;;;;;;6293345;28;20335;-40
2021/12/25 16:40:33;;;;;;;;;;;22.90;46.90;;;;;;6298260;28;20465;-43
2021/12/25 16:43:36;;;;;;;;;;;22.50;46.70;;;;;;6308573;27;19963;-41
2021/12/25 16:46:38;;;;;;;;;;;23.00;47.00;;;;;;6292196;28;19995;-41
2021/12/25 16:49:40;;;;;;;;;;;23.00;47.00;;;;;;6295038;28;20191;-41
2021/12/25 16:52:41;;;;;;;;;;;22.80;46.90;;;;;;6297574;27;20148;-41
2021/12/25 16:55:43;;;;;;;;;;;23.10;47.00;;;;;;6279800;28;20131;-41
2021/12/25 16:58:44;;;;;;;;;;;22.90;46.90;;;;;;6298556;27;20347;-41
2021/12/25 17:01:46;;;;;;;;;;;22.80;46.80;;;;;;6309660;27;20440;-41
2021/12/25 17:04:48;;;;;;;;;;;23.00;46.90;;;;;;6305830;27;19923;-41
2021/12/25 17:07:49;;;;;;;;;;;22.70;46.80;;;;;;6309662;27;19924;-41
2021/12/25 17:10:51;;;;;;;;;;;23.10;47.10;;;;;;6288096;28;20042;-41
2021/12/25 17:13:52;;;;;;;;;;;23.00;47.10;;;;;;6303634;28;20441;-41
2021/12/25 17:16:54;;;;;;;;;;;22.70;47.10;;;;;;6305227;28;20046;-41
2021/12/25 17:19:57;;;;;;;;;;;22.50;46.90;;;;;;6280418;28;20266;-41
2021/12/25 17:22:59;;;;;;;;;;;22.70;47.20;;;;;;6319669;27;20228;-40
2021/12/25 17:26:01;;;;;;;;;;;22.60;47.10;;;;;;6312301;27;20368;-41
2021/12/25 17:29:02;;;;;;;;;;;22.50;47.20;;;;;;6302617;27;20033;-43
2021/12/25 17:32:04;;;;;;;;;;;22.40;47.20;;;;;;6301506;28;19949;-41
2021/12/25 17:35:06;;;;;;;;;;;22.60;47.40;;;;;;6307745;27;20458;-41
2021/12/25 17:38:07;;;;;;;;;;;22.20;47.20;;;;;;6317766;27;20395;-41
2021/12/25 17:41:16;;;;;;;;;;;22.50;47.40;;;;;;6299618;28;20791;-41
2021/12/25 17:44:21;;;;;;;;;;;22.70;47.70;;;;;;6283687;28;20673;-41
2021/12/25 17:47:22;;;;;;;;;;;22.60;47.60;;;;;;6284707;28;20098;-41
2021/12/25 17:50:25;;;;;;;;;;;22.20;47.50;;;;;;6299080;28;20385;-41
2021/12/25 17:53:27;;;;;;;;;;;23.00;47.90;;;;;;6297503;28;20688;-41
2021/12/25 17:56:30;;;;;;;;;;;22.70;47.70;;;;;;6312624;27;20399;-41
2021/12/25 17:59:31;;;;;;;;;;;22.40;47.70;;;;;;6311825;27;19928;-40
2021/12/25 18:02:32;;;;;;;;;;;22.40;47.70;;;;;;6315443;27;19934;-41
2021/12/25 18:05:35;;;;;;;;;;;22.20;47.70;;;;;;6307001;27;20555;-41
2021/12/25 18:08:36;;;;;;;;;;;22.10;47.60;;;;;;6298061;27;20068;-41
2021/12/25 18:11:38;;;;;;;;;;;22.40;47.80;;;;;;6319342;27;20343;-41
2021/12/25 18:14:40;;;;;;;;;;;22.30;47.80;;;;;;6317408;27;20216;-40
2021/12/25 18:17:44;;;;;;;;;;;22.30;47.80;;;;;;6303546;27;19967;-43
2021/12/25 18:20:46;;;;;;;;;;;22.30;47.80;;;;;;6299797;28;20493;-40
2021/12/25 18:23:49;;;;;;;;;;;22.00;47.60;;;;;;6296340;28;20050;-41
2021/12/25 18:26:51;;;;;;;;;;;22.40;47.80;;;;;;6299451;28;20035;-41
2021/12/25 18:29:52;;;;;;;;;;;22.50;47.90;;;;;;6310848;27;20027;-41
2021/12/25 18:32:53;;;;;;;;;;;22.10;47.80;;;;;;6316616;27;20382;-41